Terminal Aerodrome Forecast
Issued by NWS Blacksburg, VA

Home | Current Version | Previous Version | Text Only | Print | Product List | Glossary On
Versions: 1 2 3 4 5 6 7 8 9 10 11 12 13 14 15 16 17 18 19 20
000
FTUS41 KRNK 291459 AAA
TAFBLF
TAF AMD
KBLF 291459Z 2915/3012 29011G19KT P6SM FEW040
     FM291800 28010G18KT P6SM SCT150
     FM300000 26004KT P6SM OVC100
     FM300600 10003KT P6SM OVC050=

USA.gov is the U.S. government's official web portal to all federal, state and local government web resources and services.